Time,TemperatureF,DewpointF,PressureIn,WindDirection,WindDirectionDegrees,WindSpeedMPH,WindSpeedGustMPH,Humidity,HourlyPrecipIn,Conditions,Clouds,dailyrainin,SoftwareType,DateUTC
2013-03-10 00:00:00,53.3,53.3,29.61,SSW,192,1.0,4.0,100,0.00,RA,,0.00,WeatherDisplay:10.37,2013-03-10 06:00:00,
2013-03-10 00:05:00,53.0,53.0,29.60,SSW,195,1.0,3.0,100,0.00,RA,,0.00,WeatherDisplay:10.37,2013-03-10 06:05:00,
2013-03-10 00:10:00,52.7,52.7,29.61,SSW,196,0.0,2.0,100,0.00,RA,,0.00,WeatherDisplay:10.37,2013-03-10 06:10:00,
2013-03-10 00:15:00,52.2,52.2,29.61,SW,222,0.0,4.0,100,0.00,CLR,,0.00,WeatherDisplay:10.37,2013-03-10 06:15:00,
2013-03-10 00:25:00,51.8,51.8,29.60,SW,234,0.0,0.0,100,0.00,CLR,,0.00,WeatherDisplay:10.37,2013-03-10 06:25:00,
2013-03-10 00:30:00,51.6,51.6,29.59,SW,234,0.0,1.0,100,0.00,CLR,,0.00,WeatherDisplay:10.37,2013-03-10 06:30:00,
2013-03-10 00:40:00,50.8,50.8,29.59,SW,234,0.0,0.0,100,0.00,CLR,,0.00,WeatherDisplay:10.37,2013-03-10 06:40:00,
2013-03-10 00:50:00,49.9,49.6,29.59,SW,234,0.0,1.0,99,0.00,CLR,,0.00,WeatherDisplay:10.37,2013-03-10 06:50:00,
2013-03-10 00:55:00,49.6,49.6,29.59,SW,234,0.0,1.0,100,0.00,CLR,,0.00,WeatherDisplay:10.37,2013-03-10 06:55:00,
2013-03-10 01:00:00,49.3,49.3,29.59,SW,234,0.0,2.0,100,0.00,CLR,,0.00,WeatherDisplay:10.37,2013-03-10 07:00:00,
2013-03-10 01:10:00,48.9,48.9,29.61,SW,234,0.0,0.0,100,0.00,CLR,,0.00,WeatherDisplay:10.37,2013-03-10 07:10:00,
2013-03-10 01:15:00,48.7,48.7,29.60,SW,234,1.0,3.0,100,0.00,CLR,,0.00,WeatherDisplay:10.37,2013-03-10 07:15:00,
2013-03-10 01:20:00,48.6,48.6,29.60,SW,234,0.0,2.0,100,0.00,CLR,,0.00,WeatherDisplay:10.37,2013-03-10 07:20:00,
2013-03-10 01:25:00,48.6,48.6,29.60,SW,234,0.0,3.0,100,0.00,CLR,,0.00,WeatherDisplay:10.37,2013-03-10 07:25:00,
2013-03-10 01:35:00,48.3,48.3,29.59,SW,234,0.0,2.0,100,0.00,CLR,,0.00,WeatherDisplay:10.37,2013-03-10 07:35:00,
2013-03-10 01:40:00,48.4,48.4,29.59,SSE,147,0.0,4.0,100,0.00,CLR,,0.00,WeatherDisplay:10.37,2013-03-10 07:40:00,
2013-03-10 01:50:00,48.6,48.6,29.60,ENE,77,1.0,3.0,100,0.00,CLR,,0.00,WeatherDisplay:10.37,2013-03-10 07:50:00,
2013-03-10 01:55:00,48.6,48.6,29.60,East,92,1.0,4.0,100,0.00,CLR,,0.00,WeatherDisplay:10.37,2013-03-10 07:55:00,
2013-03-10 03:00:00,48.6,48.6,29.60,SE,141,1.0,5.0,100,0.00,CLR,,0.00,WeatherDisplay:10.37,2013-03-10 08:00:00,
2013-03-10 03:05:00,48.8,48.8,29.60,SSE,154,1.0,5.0,100,0.00,CLR,,0.00,WeatherDisplay:10.37,2013-03-10 08:05:00,
2013-03-10 03:15:00,49.5,49.5,29.59,SSE,167,1.0,5.0,100,0.00,SCT,,0.00,WeatherDisplay:10.37,2013-03-10 08:15:00,
2013-03-10 03:20:00,49.9,49.9,29.58,SSE,148,1.0,4.0,100,0.00,SCT,,0.00,WeatherDisplay:10.37,2013-03-10 08:20:00,
2013-03-10 03:30:00,50.4,50.4,29.58,SSE,151,1.0,5.0,100,0.00,SCT,,0.00,WeatherDisplay:10.37,2013-03-10 08:30:00,
2013-03-10 03:35:00,50.6,50.6,29.59,South,173,2.0,6.0,100,0.00,BKN,,0.00,WeatherDisplay:10.37,2013-03-10 08:35:00,
2013-03-10 03:40:00,51.1,51.1,29.59,SSE,165,2.0,6.0,100,0.00,BKN,,0.00,WeatherDisplay:10.37,2013-03-10 08:40:00,
2013-03-10 03:50:00,51.7,51.7,29.59,South,185,2.0,6.0,100,0.00,BKN,,0.00,WeatherDisplay:10.37,2013-03-10 08:50:00,
2013-03-10 03:55:00,51.8,51.8,29.59,South,183,3.0,9.0,100,0.00,BKN,,0.00,WeatherDisplay:10.37,2013-03-10 08:55:00,
2013-03-10 04:00:00,51.9,51.9,29.58,SSW,196,2.0,5.0,100,0.00,BKN,,0.00,WeatherDisplay:10.37,2013-03-10 09:00:00,
2013-03-10 04:10:00,51.9,51.9,29.58,South,185,3.0,10.0,100,0.00,BKN,,0.00,WeatherDisplay:10.37,2013-03-10 09:10:00,
2013-03-10 04:20:00,51.8,51.8,29.57,South,176,2.0,4.0,100,0.00,OVC,,0.00,WeatherDisplay:10.37,2013-03-10 09:20:00,
2013-03-10 04:30:00,51.6,51.6,29.55,South,169,1.0,5.0,100,0.00,OVC,,0.00,WeatherDisplay:10.37,2013-03-10 09:30:00,
2013-03-10 04:40:00,51.4,51.4,29.56,SSE,157,2.0,6.0,100,0.00,SCT,,0.00,WeatherDisplay:10.37,2013-03-10 09:40:00,
2013-03-10 04:45:00,51.3,51.3,29.55,South,190,1.0,5.0,100,0.00,SCT,,0.00,WeatherDisplay:10.37,2013-03-10 09:45:00,
2013-03-10 04:55:00,51.2,51.2,29.55,SSE,156,2.0,4.0,100,0.00,SCT,,0.00,WeatherDisplay:10.37,2013-03-10 09:55:00,
2013-03-10 05:00:00,51.2,51.2,29.56,SE,142,1.0,4.0,100,0.00,SCT,,0.00,WeatherDisplay:10.37,2013-03-10 10:00:00,
2013-03-10 05:05:00,51.0,51.0,29.58,SSE,164,2.0,6.0,100,0.00,SCT,,0.00,WeatherDisplay:10.37,2013-03-10 10:05:00,
2013-03-10 05:10:00,51.2,51.2,29.59,South,189,3.0,7.0,100,0.00,SCT,,0.00,WeatherDisplay:10.37,2013-03-10 10:10:00,
2013-03-10 05:15:00,51.2,51.2,29.61,SSW,208,6.0,10.0,100,0.00,SCT,,0.00,WeatherDisplay:10.37,2013-03-10 10:15:00,
2013-03-10 05:20:00,51.4,51.4,29.61,SW,219,3.0,8.0,100,0.00,SCT,,0.00,WeatherDisplay:10.37,2013-03-10 10:20:00,
2013-03-10 05:25:00,51.5,51.5,29.61,SW,215,3.0,8.0,100,0.00,CLR,,0.00,WeatherDisplay:10.37,2013-03-10 10:25:00,
2013-03-10 05:30:00,51.5,51.5,29.61,SSW,212,1.0,8.0,100,0.00,CLR,,0.00,WeatherDisplay:10.37,2013-03-10 10:30:00,
2013-03-10 05:35:00,51.5,51.5,29.60,SW,216,2.0,8.0,100,0.00,CLR,,0.00,WeatherDisplay:10.37,2013-03-10 10:35:00,
2013-03-10 05:40:00,51.5,51.5,29.61,SW,221,2.0,6.0,100,0.00,CLR,,0.00,WeatherDisplay:10.37,2013-03-10 10:40:00,
2013-03-10 05:45:00,51.5,51.5,29.61,SW,227,3.0,9.0,100,0.00,CLR,,0.00,WeatherDisplay:10.37,2013-03-10 10:45:00,
2013-03-10 05:50:00,51.3,51.3,29.61,SW,224,3.0,8.0,100,0.00,CLR,,0.00,WeatherDisplay:10.37,2013-03-10 10:50:00,
2013-03-10 05:55:00,51.4,51.4,29.62,SW,232,2.0,6.0,100,0.00,CLR,,0.00,WeatherDisplay:10.37,2013-03-10 10:55:00,
2013-03-10 06:00:00,51.3,51.3,29.61,WSW,243,1.0,6.0,100,0.00,CLR,,0.00,WeatherDisplay:10.37,2013-03-10 11:00:00,
2013-03-10 06:05:00,51.2,51.2,29.61,WSW,247,0.0,3.0,100,0.00,CLR,,0.00,WeatherDisplay:10.37,2013-03-10 11:05:00,
2013-03-10 06:15:00,50.8,50.8,29.62,WSW,239,2.0,6.0,100,0.00,CLR,,0.00,WeatherDisplay:10.37,2013-03-10 11:15:00,
2013-03-10 06:25:00,50.9,50.9,29.61,SSW,204,1.0,4.0,100,0.00,CLR,,0.00,WeatherDisplay:10.37,2013-03-10 11:25:00,
2013-03-10 06:30:00,50.8,50.8,29.61,SW,216,1.0,5.0,100,0.00,CLR,,0.00,WeatherDisplay:10.37,2013-03-10 11:30:00,
2013-03-10 06:40:00,50.6,50.6,29.60,SSW,206,1.0,4.0,100,0.00,CLR,,0.00,WeatherDisplay:10.37,2013-03-10 11:40:00,
2013-03-10 06:45:00,50.6,50.6,29.60,SSW,213,3.0,7.0,100,0.00,BKN,,0.00,WeatherDisplay:10.37,2013-03-10 11:45:00,
2013-03-10 06:50:00,50.8,50.8,29.59,SSW,206,1.0,7.0,100,0.00,BKN,,0.00,WeatherDisplay:10.37,2013-03-10 11:50:00,
2013-03-10 06:55:00,50.9,50.9,29.60,SSW,198,1.0,8.0,100,0.00,BKN,,0.00,WeatherDisplay:10.37,2013-03-10 11:55:00,
2013-03-10 07:05:00,51.1,51.1,29.63,SSW,208,5.0,9.0,100,0.00,OVC,,0.00,WeatherDisplay:10.37,2013-03-10 12:05:00,
2013-03-10 07:10:00,51.2,51.2,29.64,SSW,193,5.0,8.0,100,0.00,OVC,,0.00,WeatherDisplay:10.37,2013-03-10 12:10:00,
2013-03-10 07:15:00,51.2,51.2,29.64,SSW,200,3.0,12.0,100,0.00,OVC,,0.00,WeatherDisplay:10.37,2013-03-10 12:15:00,
2013-03-10 07:25:00,51.2,51.2,29.64,SSW,200,5.0,12.0,100,0.00,OVC,,0.00,WeatherDisplay:10.37,2013-03-10 12:25:00,
2013-03-10 07:35:00,51.1,51.1,29.63,South,187,3.0,8.0,100,0.00,OVC,,0.00,WeatherDisplay:10.37,2013-03-10 12:35:00,
2013-03-10 07:40:00,50.9,50.9,29.63,SSW,196,1.0,4.0,100,0.00,OVC,,0.00,WeatherDisplay:10.37,2013-03-10 12:40:00,
2013-03-10 07:45:00,50.7,50.7,29.62,SSW,200,0.0,3.0,100,0.00,OVC,,0.00,WeatherDisplay:10.37,2013-03-10 12:45:00,
2013-03-10 07:55:00,50.2,50.2,29.62,SSW,201,1.0,3.0,100,0.00,OVC,,0.00,WeatherDisplay:10.37,2013-03-10 12:55:00,
2013-03-10 08:05:00,49.6,49.6,29.63,SSW,201,0.0,3.0,100,0.00,OVC,,0.00,WeatherDisplay:10.37,2013-03-10 13:05:00,
2013-03-10 08:15:00,49.3,49.3,29.62,SSW,201,0.0,2.0,100,0.00,OVC,,0.00,WeatherDisplay:10.37,2013-03-10 13:15:00,
2013-03-10 08:20:00,49.2,49.2,29.62,SSW,201,0.0,2.0,100,0.00,OVC,,0.00,WeatherDisplay:10.37,2013-03-10 13:20:00,
2013-03-10 08:30:00,48.7,48.7,29.64,WNW,284,7.0,12.0,100,0.00,CLR,,0.00,WeatherDisplay:10.37,2013-03-10 13:30:00,
2013-03-10 08:40:00,45.9,45.3,29.63,NW,313,5.0,8.0,98,0.00,CLR,,0.00,WeatherDisplay:10.37,2013-03-10 13:40:00,
2013-03-10 08:50:00,44.7,44.4,29.62,NNW,345,2.0,7.0,99,0.00,OVC,,0.00,WeatherDisplay:10.37,2013-03-10 13:50:00,
2013-03-10 08:55:00,44.1,43.9,29.63,NNW,345,5.0,7.0,99,0.00,OVC,,0.00,WeatherDisplay:10.37,2013-03-10 13:55:00,
2013-03-10 09:00:00,43.6,43.3,29.63,NNW,334,2.0,9.0,99,0.00,OVC,,0.00,WeatherDisplay:10.37,2013-03-10 14:00:00,
2013-03-10 09:05:00,43.1,42.9,29.64,NNW,339,2.0,7.0,99,0.00,OVC,,0.00,WeatherDisplay:10.37,2013-03-10 14:05:00,
2013-03-10 09:10:00,42.7,42.4,29.65,NW,312,2.0,7.0,99,0.00,OVC,,0.00,WeatherDisplay:10.37,2013-03-10 14:10:00,
2013-03-10 09:15:00,42.1,41.8,29.64,NW,306,2.0,5.0,99,0.00,OVC,,0.00,WeatherDisplay:10.37,2013-03-10 14:15:00,
2013-03-10 09:25:00,41.9,41.6,29.66,NW,318,2.0,6.0,99,0.00,OVC,,0.00,WeatherDisplay:10.37,2013-03-10 14:25:00,
2013-03-10 09:30:00,41.7,41.4,29.67,NW,322,2.0,5.0,99,0.00,OVC,,0.00,WeatherDisplay:10.37,2013-03-10 14:30:00,
2013-03-10 09:35:00,41.5,41.2,29.66,NW,321,2.0,5.0,99,0.00,OVC,,0.00,WeatherDisplay:10.37,2013-03-10 14:35:00,
2013-03-10 09:45:00,41.3,41.3,29.66,WNW,295,3.0,7.0,100,0.00,OVC,,0.00,WeatherDisplay:10.37,2013-03-10 14:45:00,
2013-03-10 09:50:00,41.1,40.8,29.65,NW,307,3.0,7.0,99,0.00,OVC,,0.00,WeatherDisplay:10.37,2013-03-10 14:50:00,
2013-03-10 09:55:00,41.0,40.7,29.65,WNW,302,5.0,7.0,99,0.00,OVC,,0.00,WeatherDisplay:10.37,2013-03-10 14:55:00,
2013-03-10 10:05:00,40.9,40.6,29.65,NW,324,2.0,6.0,99,0.00,,,0.00,WeatherDisplay:10.37,2013-03-10 15:05:00,
2013-03-10 10:10:00,40.9,40.6,29.64,NNW,335,5.0,9.0,99,0.00,CLR,,0.00,WeatherDisplay:10.37,2013-03-10 15:10:00,
2013-03-10 10:20:00,40.7,40.4,29.65,NNW,337,2.0,8.0,99,0.00,CLR,,0.00,WeatherDisplay:10.37,2013-03-10 15:20:00,
2013-03-10 10:25:00,40.5,40.3,29.66,NW,325,3.0,7.0,99,0.00,,,0.00,WeatherDisplay:10.37,2013-03-10 15:25:00,
2013-03-10 10:30:00,40.6,40.6,29.65,NW,321,2.0,6.0,100,0.00,,,0.00,WeatherDisplay:10.37,2013-03-10 15:30:00,
2013-03-10 10:40:00,40.6,40.3,29.65,NNW,337,6.0,10.0,99,0.00,CLR,,0.00,WeatherDisplay:10.37,2013-03-10 15:40:00,
2013-03-10 10:45:00,40.4,40.1,29.66,NNW,333,2.0,7.0,99,0.00,,,0.00,WeatherDisplay:10.37,2013-03-10 15:45:00,
2013-03-10 10:50:00,40.3,40.3,29.66,NNW,330,5.0,8.0,100,0.00,,,0.00,WeatherDisplay:10.37,2013-03-10 15:50:00,
2013-03-10 11:00:00,40.1,39.8,29.65,NNW,327,6.0,9.0,99,0.00,,,0.00,WeatherDisplay:10.37,2013-03-10 16:00:00,
2013-03-10 11:10:00,40.0,40.0,29.66,NNW,335,3.0,9.0,100,0.00,OVC,,0.00,WeatherDisplay:10.37,2013-03-10 16:10:00,
2013-03-10 11:20:00,39.6,39.6,29.66,NW,318,3.0,9.0,100,0.00,OVC,,0.00,WeatherDisplay:10.37,2013-03-10 16:20:00,
2013-03-10 11:25:00,39.4,39.4,29.67,NW,310,3.0,6.0,100,0.00,OVC,,0.00,WeatherDisplay:10.37,2013-03-10 16:25:00,
2013-03-10 11:30:00,39.3,39.3,29.67,NW,322,1.0,6.0,100,0.00,OVC,,0.00,WeatherDisplay:10.37,2013-03-10 16:30:00,
2013-03-10 11:35:00,39.1,38.9,29.67,NNW,330,2.0,12.0,99,0.00,OVC,,0.00,WeatherDisplay:10.37,2013-03-10 16:35:00,
2013-03-10 11:40:00,39.1,38.9,29.67,NW,324,5.0,10.0,99,0.00,OVC,,0.00,WeatherDisplay:10.37,2013-03-10 16:40:00,
2013-03-10 11:45:00,39.0,38.7,29.67,NW,320,5.0,10.0,99,0.00,OVC,,0.00,WeatherDisplay:10.37,2013-03-10 16:45:00,
2013-03-10 11:55:00,38.8,38.6,29.67,NW,315,5.0,10.0,99,0.00,OVC,,0.00,WeatherDisplay:10.37,2013-03-10 16:55:00,
2013-03-10 12:05:00,38.9,38.9,29.67,NW,319,6.0,10.0,100,0.00,OVC,,0.00,WeatherDisplay:10.37,2013-03-10 17:05:00,
2013-03-10 12:15:00,38.7,38.7,29.68,NW,324,3.0,8.0,100,0.00,OVC,,0.00,WeatherDisplay:10.37,2013-03-10 17:15:00,
2013-03-10 12:26:00,38.6,38.6,29.67,NW,320,5.0,9.0,100,0.00,OVC,,0.00,WeatherDisplay:10.37,2013-03-10 17:26:00,
2013-03-10 12:35:00,38.4,38.4,29.67,NW,319,2.0,12.0,100,0.00,OVC,,0.00,WeatherDisplay:10.37,2013-03-10 17:35:00,
2013-03-10 12:40:00,38.4,38.4,29.67,NW,321,3.0,7.0,100,0.00,OVC,,0.00,WeatherDisplay:10.37,2013-03-10 17:40:00,
2013-03-10 12:45:00,38.4,38.4,29.67,NW,313,5.0,8.0,100,0.00,OVC,,0.00,WeatherDisplay:10.37,2013-03-10 17:45:00,
2013-03-10 12:55:00,37.9,37.9,29.67,NW,315,5.0,13.0,100,0.00,OVC,,0.00,WeatherDisplay:10.37,2013-03-10 17:55:00,
2013-03-10 13:05:00,37.7,37.7,29.67,NNW,328,2.0,12.0,100,0.00,OVC,,0.00,WeatherDisplay:10.37,2013-03-10 18:05:00,
2013-03-10 13:15:00,37.6,37.6,29.67,NNW,328,6.0,12.0,100,0.00,OVC,,0.00,WeatherDisplay:10.37,2013-03-10 18:15:00,
2013-03-10 13:20:00,37.6,37.6,29.68,NNW,329,6.0,12.0,100,0.00,OVC,,0.00,WeatherDisplay:10.37,2013-03-10 18:20:00,
2013-03-10 13:30:00,37.4,37.4,29.67,NNW,327,8.0,15.0,100,0.00,OVC,,0.00,WeatherDisplay:10.37,2013-03-10 18:30:00,
2013-03-10 13:40:00,37.3,37.3,29.67,NNW,335,5.0,12.0,100,0.00,OVC,,0.00,WeatherDisplay:10.37,2013-03-10 18:40:00,
2013-03-10 13:50:00,37.3,37.3,29.68,NNW,332,5.0,10.0,100,0.00,OVC,,0.00,WeatherDisplay:10.37,2013-03-10 18:50:00,
2013-03-10 14:00:00,37.1,37.1,29.68,NNW,332,6.0,13.0,100,0.00,OVC,,0.00,WeatherDisplay:10.37,2013-03-10 19:00:00,
2013-03-10 14:10:00,37.0,37.0,29.68,NNW,328,5.0,12.0,100,0.00,OVC,,0.00,WeatherDisplay:10.37,2013-03-10 19:10:00,
2013-03-10 14:20:00,36.8,36.6,29.68,NW,319,7.0,15.0,99,0.00,OVC,,0.00,WeatherDisplay:10.37,2013-03-10 19:20:00,
2013-03-10 14:30:00,36.7,36.7,29.68,NNW,331,2.0,12.0,100,0.00,OVC,,0.00,WeatherDisplay:10.37,2013-03-10 19:30:00,
2013-03-10 14:40:00,36.6,36.4,29.68,NW,315,6.0,12.0,99,0.00,OVC,,0.00,WeatherDisplay:10.37,2013-03-10 19:40:00,
2013-03-10 14:45:00,36.6,36.3,29.69,NW,314,6.0,13.0,99,0.00,OVC,,0.00,WeatherDisplay:10.37,2013-03-10 19:45:00,
2013-03-10 14:50:00,36.4,36.2,29.68,NW,312,5.0,10.0,99,0.00,OVC,,0.00,WeatherDisplay:10.37,2013-03-10 19:50:00,
2013-03-10 15:00:00,36.4,36.2,29.69,WNW,302,6.0,13.0,99,0.00,OVC,,0.00,WeatherDisplay:10.37,2013-03-10 20:00:00,
2013-03-10 15:10:00,36.3,36.0,29.69,NW,306,5.0,12.0,99,0.00,-RA,,0.00,WeatherDisplay:10.37,2013-03-10 20:10:00,
2013-03-10 15:20:00,35.4,35.2,29.70,WNW,295,9.0,18.0,99,0.00,-RA,,0.00,WeatherDisplay:10.37,2013-03-10 20:20:00,
2013-03-10 15:30:00,34.6,34.3,29.70,WNW,302,7.0,16.0,99,0.00,-RA,,0.00,WeatherDisplay:10.37,2013-03-10 20:30:00,
2013-03-10 15:35:00,34.3,33.8,29.71,WNW,299,8.0,15.0,98,0.00,-RA,,0.00,WeatherDisplay:10.37,2013-03-10 20:35:00,
2013-03-10 15:40:00,34.1,33.6,29.72,NW,306,7.0,12.0,98,0.00,-RA,,0.00,WeatherDisplay:10.37,2013-03-10 20:40:00,
2013-03-10 15:50:00,34.0,33.7,29.72,NW,314,5.0,12.0,99,0.00,-RA,,0.00,WeatherDisplay:10.37,2013-03-10 20:50:00,
2013-03-10 16:00:00,33.7,33.2,29.73,NW,306,3.0,12.0,98,0.00,-RA,,0.01,WeatherDisplay:10.37,2013-03-10 21:00:00,
2013-03-10 16:05:00,33.7,33.4,29.73,NW,304,5.0,15.0,99,0.00,-RA,,0.01,WeatherDisplay:10.37,2013-03-10 21:05:00,
2013-03-10 16:10:00,33.4,32.9,29.73,WNW,300,6.0,18.0,98,0.00,-RA,,0.01,WeatherDisplay:10.37,2013-03-10 21:10:00,
2013-03-10 16:20:00,33.1,32.6,29.74,NW,310,7.0,14.0,98,0.00,-RA,,0.01,WeatherDisplay:10.37,2013-03-10 21:20:00,
2013-03-10 16:25:00,32.8,32.3,29.75,WNW,303,12.0,20.0,98,0.00,-RA,,0.01,WeatherDisplay:10.37,2013-03-10 21:25:00,
2013-03-10 16:35:00,32.5,32.3,29.75,NW,321,5.0,10.0,99,0.00,-RA,,0.01,WeatherDisplay:10.37,2013-03-10 21:35:00,
2013-03-10 16:40:00,32.5,32.0,29.75,NW,319,7.0,16.0,98,0.00,-RA,,0.01,WeatherDisplay:10.37,2013-03-10 21:40:00,
2013-03-10 16:45:00,32.3,31.8,29.75,NW,310,7.0,20.0,98,0.00,-RA,,0.01,WeatherDisplay:10.37,2013-03-10 21:45:00,
2013-03-10 16:55:00,31.9,31.1,29.76,NW,312,7.0,12.0,97,0.00,-RA,,0.01,WeatherDisplay:10.37,2013-03-10 21:55:00,
2013-03-10 17:00:00,31.7,31.2,29.76,NW,310,7.0,16.0,98,0.00,-RA,,0.01,WeatherDisplay:10.37,2013-03-10 22:00:00,
2013-03-10 17:05:00,31.7,31.2,29.76,NW,309,5.0,14.0,98,0.00,OVC,,0.01,WeatherDisplay:10.37,2013-03-10 22:05:00,
2013-03-10 17:10:00,31.7,31.2,29.76,NW,313,7.0,13.0,98,0.00,OVC,,0.01,WeatherDisplay:10.37,2013-03-10 22:10:00,
2013-03-10 17:20:00,31.6,31.1,29.77,NW,316,6.0,14.0,98,0.00,OVC,,0.01,WeatherDisplay:10.37,2013-03-10 22:20:00,
2013-03-10 17:30:00,31.3,30.5,29.77,NW,307,5.0,14.0,97,0.00,OVC,,0.01,WeatherDisplay:10.37,2013-03-10 22:30:00,
2013-03-10 17:35:00,31.1,30.4,29.77,NW,309,6.0,13.0,97,0.00,OVC,,0.01,WeatherDisplay:10.37,2013-03-10 22:35:00,
2013-03-10 17:40:00,31.0,30.0,29.78,NW,310,7.0,16.0,96,0.00,OVC,,0.01,WeatherDisplay:10.37,2013-03-10 22:40:00,
2013-03-10 17:50:00,30.9,30.1,29.78,NW,308,5.0,10.0,97,0.00,OVC,,0.01,WeatherDisplay:10.37,2013-03-10 22:50:00,
2013-03-10 17:55:00,30.7,30.0,29.78,NW,305,8.0,20.0,97,0.00,OVC,,0.01,WeatherDisplay:10.37,2013-03-10 22:55:00,
2013-03-10 18:00:00,30.7,30.0,29.79,NW,309,6.0,13.0,97,0.00,OVC,,0.01,WeatherDisplay:10.37,2013-03-10 23:00:00,
2013-03-10 18:05:00,30.7,30.0,29.78,NW,318,7.0,12.0,97,0.00,OVC,,0.01,WeatherDisplay:10.37,2013-03-10 23:05:00,
2013-03-10 18:10:00,30.6,29.9,29.79,NW,310,5.0,13.0,97,0.00,OVC,,0.01,WeatherDisplay:10.37,2013-03-10 23:10:00,
2013-03-10 18:20:00,30.6,29.6,29.79,NW,316,5.0,18.0,96,0.00,OVC,,0.01,WeatherDisplay:10.37,2013-03-10 23:20:00,
2013-03-10 18:30:00,30.4,29.4,29.80,NW,305,7.0,13.0,96,0.00,OVC,,0.01,WeatherDisplay:10.37,2013-03-10 23:30:00,
2013-03-10 18:40:00,30.3,29.0,29.80,NW,318,5.0,17.0,95,0.00,OVC,,0.01,WeatherDisplay:10.37,2013-03-10 23:40:00,
2013-03-10 18:50:00,30.3,29.0,29.81,NW,306,6.0,12.0,95,0.00,OVC,,0.01,WeatherDisplay:10.37,2013-03-10 23:50:00,
2013-03-10 18:55:00,30.2,28.9,29.81,NW,305,7.0,15.0,95,0.00,OVC,,0.01,WeatherDisplay:10.37,2013-03-10 23:55:00,
2013-03-10 19:00:00,30.1,28.8,29.81,NW,313,6.0,13.0,95,0.00,OVC,,0.01,WeatherDisplay:10.37,2013-03-11 00:00:00,
2013-03-10 19:10:00,30.0,28.5,29.81,NW,313,6.0,12.0,94,0.00,OVC,,0.01,WeatherDisplay:10.37,2013-03-11 00:10:00,
2013-03-10 19:20:00,30.0,28.2,29.82,NW,310,7.0,13.0,93,0.00,OVC,,0.01,WeatherDisplay:10.37,2013-03-11 00:20:00,
2013-03-10 19:30:00,29.8,28.1,29.82,NW,322,6.0,17.0,93,0.00,OVC,,0.01,WeatherDisplay:10.37,2013-03-11 00:30:00,
2013-03-10 19:40:00,30.0,28.0,29.82,NW,317,5.0,9.0,92,0.00,OVC,,0.01,WeatherDisplay:10.37,2013-03-11 00:40:00,
2013-03-10 19:50:00,30.0,28.0,29.83,NW,311,6.0,12.0,92,0.00,OVC,,0.01,WeatherDisplay:10.37,2013-03-11 00:50:00,
2013-03-10 19:55:00,30.0,28.0,29.83,WNW,303,7.0,17.0,92,0.00,OVC,,0.01,WeatherDisplay:10.37,2013-03-11 00:55:00,
2013-03-10 20:00:00,30.0,28.0,29.83,NW,312,3.0,14.0,92,0.00,OVC,,0.01,WeatherDisplay:10.37,2013-03-11 01:00:00,
2013-03-10 20:10:00,29.9,27.8,29.83,WNW,302,6.0,14.0,92,0.00,OVC,,0.01,WeatherDisplay:10.37,2013-03-11 01:10:00,
2013-03-10 20:15:00,29.8,27.5,29.84,WNW,295,5.0,13.0,91,0.00,OVC,,0.01,WeatherDisplay:10.37,2013-03-11 01:15:00,
2013-03-10 20:25:00,29.7,27.4,29.85,NW,310,6.0,10.0,91,0.00,OVC,,0.01,WeatherDisplay:10.37,2013-03-11 01:25:00,
2013-03-10 20:30:00,29.7,27.4,29.84,NW,306,3.0,12.0,91,0.00,OVC,,0.01,WeatherDisplay:10.37,2013-03-11 01:30:00,
2013-03-10 20:35:00,29.7,27.1,29.85,NW,304,6.0,12.0,90,0.00,OVC,,0.01,WeatherDisplay:10.37,2013-03-11 01:35:00,
2013-03-10 20:40:00,29.7,27.4,29.84,WNW,300,7.0,12.0,91,0.00,OVC,,0.01,WeatherDisplay:10.37,2013-03-11 01:40:00,
2013-03-10 20:45:00,29.5,26.9,29.84,WNW,302,6.0,13.0,90,0.00,OVC,,0.01,WeatherDisplay:10.37,2013-03-11 01:45:00,
2013-03-10 20:55:00,29.3,27.0,29.84,WNW,297,8.0,13.0,91,0.00,OVC,,0.01,WeatherDisplay:10.37,2013-03-11 01:55:00,
2013-03-10 21:00:00,29.2,26.9,29.84,NW,304,5.0,13.0,91,0.00,OVC,,0.01,WeatherDisplay:10.37,2013-03-11 02:00:00,
2013-03-10 21:05:00,29.2,27.2,29.85,NW,308,8.0,13.0,92,0.00,OVC,,0.01,WeatherDisplay:10.37,2013-03-11 02:05:00,
2013-03-10 21:10:00,29.1,26.8,29.85,NW,311,6.0,13.0,91,0.00,OVC,,0.01,WeatherDisplay:10.37,2013-03-11 02:10:00,
2013-03-10 21:15:00,28.9,26.6,29.85,WNW,302,7.0,14.0,91,0.00,OVC,,0.01,WeatherDisplay:10.37,2013-03-11 02:15:00,
2013-03-10 21:20:00,28.9,26.6,29.86,WNW,300,7.0,17.0,91,0.00,OVC,,0.01,WeatherDisplay:10.37,2013-03-11 02:20:00,
2013-03-10 21:25:00,28.8,26.2,29.86,NW,308,8.0,18.0,90,0.00,OVC,,0.01,WeatherDisplay:10.37,2013-03-11 02:25:00,
2013-03-10 21:30:00,28.6,26.0,29.85,NW,311,5.0,15.0,90,0.00,OVC,,0.01,WeatherDisplay:10.37,2013-03-11 02:30:00,
2013-03-10 21:40:00,28.5,25.9,29.86,NW,307,5.0,16.0,90,0.00,OVC,,0.01,WeatherDisplay:10.37,2013-03-11 02:40:00,
2013-03-10 21:45:00,28.5,25.9,29.86,NW,310,7.0,14.0,90,0.00,OVC,,0.01,WeatherDisplay:10.37,2013-03-11 02:45:00,
2013-03-10 21:50:00,28.3,25.8,29.86,WNW,302,6.0,16.0,90,0.00,OVC,,0.01,WeatherDisplay:10.37,2013-03-11 02:50:00,
2013-03-10 21:55:00,28.3,25.8,29.86,WNW,300,6.0,13.0,90,0.00,OVC,,0.01,WeatherDisplay:10.37,2013-03-11 02:55:00,
2013-03-10 22:05:00,28.2,25.4,29.87,NW,305,7.0,12.0,89,0.00,OVC,,0.01,WeatherDisplay:10.37,2013-03-11 03:05:00,
2013-03-10 22:15:00,28.0,24.9,29.87,NW,308,7.0,17.0,88,0.00,OVC,,0.01,WeatherDisplay:10.37,2013-03-11 03:15:00,
2013-03-10 22:20:00,28.0,24.9,29.87,NW,313,3.0,18.0,88,0.00,OVC,,0.01,WeatherDisplay:10.37,2013-03-11 03:20:00,
2013-03-10 22:25:00,28.0,24.9,29.88,WNW,294,7.0,13.0,88,0.00,OVC,,0.01,WeatherDisplay:10.37,2013-03-11 03:25:00,
2013-03-10 22:30:00,27.9,24.8,29.88,WNW,299,5.0,15.0,88,0.00,OVC,,0.01,WeatherDisplay:10.37,2013-03-11 03:30:00,
2013-03-10 22:35:00,27.9,24.8,29.88,NW,312,7.0,13.0,88,0.00,OVC,,0.01,WeatherDisplay:10.37,2013-03-11 03:35:00,
2013-03-10 22:40:00,27.7,24.7,29.88,NW,318,5.0,13.0,88,0.00,OVC,,0.01,WeatherDisplay:10.37,2013-03-11 03:40:00,
2013-03-10 22:50:00,27.6,24.3,29.88,WNW,294,5.0,12.0,87,0.00,OVC,,0.01,WeatherDisplay:10.37,2013-03-11 03:50:00,
2013-03-10 23:00:00,27.4,24.4,29.88,NW,319,5.0,12.0,88,0.00,OVC,,0.01,WeatherDisplay:10.37,2013-03-11 04:00:00,
2013-03-10 23:05:00,27.3,24.2,29.88,NW,313,5.0,13.0,88,0.00,OVC,,0.01,WeatherDisplay:10.37,2013-03-11 04:05:00,
2013-03-10 23:10:00,27.3,24.2,29.88,NW,307,3.0,9.0,88,0.00,OVC,,0.01,WeatherDisplay:10.37,2013-03-11 04:10:00,
2013-03-10 23:15:00,27.3,23.9,29.88,WNW,293,6.0,12.0,87,0.00,OVC,,0.01,WeatherDisplay:10.37,2013-03-11 04:15:00,
2013-03-10 23:20:00,27.3,24.2,29.88,WNW,290,5.0,10.0,88,0.00,OVC,,0.01,WeatherDisplay:10.37,2013-03-11 04:20:00,
2013-03-10 23:25:00,27.1,23.8,29.89,WNW,302,6.0,14.0,87,0.00,OVC,,0.01,WeatherDisplay:10.37,2013-03-11 04:25:00,
2013-03-10 23:30:00,27.0,23.6,29.88,NW,307,2.0,15.0,87,0.00,OVC,,0.01,WeatherDisplay:10.37,2013-03-11 04:30:00,
2013-03-10 23:40:00,27.0,23.6,29.89,WNW,299,5.0,12.0,87,0.00,OVC,,0.01,WeatherDisplay:10.37,2013-03-11 04:40:00,
2013-03-10 23:45:00,27.0,23.6,29.88,WNW,302,6.0,12.0,87,0.00,OVC,,0.01,WeatherDisplay:10.37,2013-03-11 04:45:00,
2013-03-10 23:55:00,26.9,23.5,29.88,WNW,297,7.0,14.0,87,0.00,OVC,,0.01,WeatherDisplay:10.37,2013-03-11 04:55:00,